Time;durP1;ratioP1;P1;durP2;ratioP2;P2;SDS_P1;SDS_P2;PMS_P1;PMS_P2;Temp;Humidity;BMP_temperature;BMP_pressure;BME280_temperature;BME280_humidity;BME280_pressure;Samples;Min_cycle;Max_cycle;Signal;HPM_P1;HPM_P2
2024/03/09 00:04:34;;;;;;;14.40;4.82;;;;;;;;;;10257643;28;20494;-86
2024/03/09 00:09:38;;;;;;;15.10;5.05;;;;;;;;;;10272620;28;20054;-82
2024/03/09 00:14:42;;;;;;;17.02;5.25;;;;;;;;;;10270898;28;20157;-81
2024/03/09 00:19:52;;;;;;;16.02;4.82;;;;;;;;;;10297900;28;20057;-81
2024/03/09 00:24:55;;;;;;;11.98;4.50;;;;;;;;;;10280669;28;20046;-83
2024/03/09 00:30:00;;;;;;;11.60;4.03;;;;;;;;;;10284541;28;20110;-81
2024/03/09 00:35:07;;;;;;;11.52;4.25;;;;;;;;;;10291092;28;20329;-82
2024/03/09 00:40:17;;;;;;;8.70;4.03;;;;;;;;;;10301722;28;20089;-83
2024/03/09 00:45:21;;;;;;;9.48;3.67;;;;;;;;;;10295841;28;20043;-84
2024/03/09 00:50:26;;;;;;;;;;;;;;;;;;10302900;28;20109;-84
2024/03/09 00:55:29;;;;;;;10.73;3.77;;;;;;;;;;10297098;28;20371;-83
2024/03/09 01:00:34;;;;;;;9.65;3.90;;;;;;;;;;10296970;28;20387;-82
2024/03/09 01:05:47;;;;;;;10.10;4.13;;;;;;;;;;10290770;28;20566;-84
2024/03/09 01:10:50;;;;;;;10.55;3.95;;;;;;;;;;10294212;28;20047;-85
2024/03/09 01:15:57;;;;;;;11.45;4.22;;;;;;;;;;10294665;28;20042;-86
2024/03/09 01:21:00;;;;;;;12.13;4.55;;;;;;;;;;10293072;28;20047;-84
2024/03/09 01:26:09;;;;;;;7.07;3.25;;;;;;;;;;10302658;28;20114;-84
2024/03/09 01:31:16;;;;;;;8.80;2.83;;;;;;;;;;10381368;23;20034;-84
2024/03/09 01:36:20;;;;;;;6.03;2.47;;;;;;;;;;10267808;28;20035;-84
2024/03/09 01:41:34;;;;;;;9.68;4.22;;;;;;;;;;10267760;28;20110;-85
2024/03/09 01:46:38;;;;;;;8.25;3.17;;;;;;;;;;10262130;28;20043;-86
2024/03/09 01:51:46;;;;;;;12.60;4.00;;;;;;;;;;10245633;28;20467;-85
2024/03/09 01:56:56;;;;;;;13.40;4.07;;;;;;;;;;10238482;28;20044;-86
2024/03/09 02:02:01;;;;;;;9.50;3.93;;;;;;;;;;10244987;28;20447;-84
2024/03/09 02:07:06;;;;;;;12.40;4.43;;;;;;;;;;10258857;28;20043;-84
2024/03/09 02:12:11;;;;;;;10.73;3.45;;;;;;;;;;10260166;28;20126;-84
2024/03/09 02:17:14;;;;;;;;;;;;;;;;;;10265891;28;20050;-84
2024/03/09 02:22:27;;;;;;;12.47;3.70;;;;;;;;;;10257770;28;20243;-83
2024/03/09 02:27:31;;;;;;;10.27;3.83;;;;;;;;;;10234542;28;20039;-84
2024/03/09 02:32:34;;;;;;;10.77;4.18;;;;;;;;;;10253728;28;20039;-84
2024/03/09 02:37:37;;;;;;;8.50;3.20;;;;;;;;;;10257812;28;20075;-84
2024/03/09 02:43:04;;;;;;;7.30;2.60;;;;;;;;;;10245203;28;20119;-83
2024/03/09 02:48:07;;;;;;;9.77;3.17;;;;;;;;;;10293449;28;20031;-82
2024/03/09 02:53:11;;;;;;;14.07;4.50;;;;;;;;;;10290659;28;20042;-83
2024/03/09 02:58:17;;;;;;;2.20;1.33;;;;;;;;;;10287643;28;20066;-83
2024/03/09 03:08:50;;;;;;;11.53;4.83;;;;;;;;;;10247020;28;20118;-82
2024/03/09 03:13:55;;;;;;;11.30;4.07;;;;;;;;;;10242899;28;20609;-82
2024/03/09 03:19:03;;;;;;;9.90;3.43;;;;;;;;;;10241950;28;20126;-82
2024/03/09 03:24:08;;;;;;;10.57;4.23;;;;;;;;;;10238359;28;20110;-84
2024/03/09 03:29:20;;;;;;;8.57;3.33;;;;;;;;;;10245614;28;20039;-84
2024/03/09 03:34:24;;;;;;;12.55;4.68;;;;;;;;;;10256530;28;20043;-83
2024/03/09 03:39:34;;;;;;;13.23;4.83;;;;;;;;;;10239668;28;20129;-84
2024/03/09 03:44:39;;;;;;;14.63;5.23;;;;;;;;;;10240270;28;20050;-84
2024/03/09 03:49:46;;;;;;;10.90;4.40;;;;;;;;;;10241690;28;20399;-84
2024/03/09 03:54:58;;;;;;;14.07;4.75;;;;;;;;;;10249610;28;20062;-83
2024/03/09 04:00:05;;;;;;;13.15;3.97;;;;;;;;;;10239886;28;20035;-82
2024/03/09 04:05:18;;;;;;;11.43;4.30;;;;;;;;;;10235354;28;20184;-83
2024/03/09 04:10:22;;;;;;;7.03;3.30;;;;;;;;;;10236534;28;20182;-82
2024/03/09 04:15:27;;;;;;;10.32;4.18;;;;;;;;;;10239479;28;20051;-84
2024/03/09 04:20:33;;;;;;;13.67;4.60;;;;;;;;;;10242212;28;20074;-83
2024/03/09 04:25:41;;;;;;;10.20;4.07;;;;;;;;;;10250925;28;20070;-83
2024/03/09 04:30:46;;;;;;;12.45;4.80;;;;;;;;;;10243069;28;20142;-82
2024/03/09 04:35:48;;;;;;;;;;;;;;;;;;10243943;28;20047;-84
2024/03/09 04:40:51;;;;;;;9.10;4.13;;;;;;;;;;10263005;28;19921;-84
2024/03/09 04:45:56;;;;;;;4.30;1.80;;;;;;;;;;10255364;28;20142;-83
2024/03/09 04:50:59;;;;;;;4.80;2.23;;;;;;;;;;10250489;28;20602;-83
2024/03/09 04:56:03;;;;;;;;;;;;;;;;;;10253374;28;20059;-82
2024/03/09 05:01:08;;;;;;;16.00;5.07;;;;;;;;;;10237293;28;19926;-83
2024/03/09 05:06:12;;;;;;;8.67;3.23;;;;;;;;;;10252267;28;20699;-81
2024/03/09 05:11:22;;;;;;;4.23;2.47;;;;;;;;;;10256910;28;20403;-82
2024/03/09 05:16:26;;;;;;;13.13;4.97;;;;;;;;;;10260300;28;20579;-82
2024/03/09 05:21:34;;;;;;;10.07;4.07;;;;;;;;;;10266924;28;20051;-85
2024/03/09 05:26:45;;;;;;;6.67;2.87;;;;;;;;;;10262599;28;20046;-85
2024/03/09 05:31:50;;;;;;;1.50;1.33;;;;;;;;;;10250241;28;20051;-83
2024/03/09 05:36:55;;;;;;;10.67;4.80;;;;;;;;;;10255023;28;20137;-84
2024/03/09 05:41:58;;;;;;;;;;;;;;;;;;10256260;28;20075;-84
2024/03/09 05:47:02;;;;;;;8.13;3.00;;;;;;;;;;10259744;28;19922;-84
2024/03/09 05:52:13;;;;;;;13.53;4.53;;;;;;;;;;10255609;28;20074;-86
2024/03/09 05:57:18;;;;;;;12.57;5.10;;;;;;;;;;10260804;28;20585;-84
2024/03/09 06:02:22;;;;;;;15.13;5.10;;;;;;;;;;10274263;28;20079;-84
2024/03/09 06:07:34;;;;;;;11.17;4.23;;;;;;;;;;10277317;28;20055;-88
2024/03/09 06:12:38;;;;;;;13.40;4.27;;;;;;;;;;10274114;28;20443;-87
2024/03/09 06:17:43;;;;;;;9.43;4.40;;;;;;;;;;10273041;28;20047;-85
2024/03/09 06:22:48;;;;;;;12.07;4.72;;;;;;;;;;10258472;28;20091;-84
2024/03/09 06:27:51;;;;;;;12.80;4.60;;;;;;;;;;10254184;28;20118;-84
2024/03/09 06:32:57;;;;;;;10.70;4.47;;;;;;;;;;10249539;28;20134;-86
2024/03/09 06:38:06;;;;;;;13.57;5.85;;;;;;;;;;10229016;28;20792;-84
2024/03/09 06:43:10;;;;;;;16.98;5.60;;;;;;;;;;8210497;23;20963;-74
2024/03/09 06:48:14;;;;;;;;;;;;;;;;;;10252027;28;20054;-75
2024/03/09 06:53:25;;;;;;;12.93;6.20;;;;;;;;;;10253793;28;19922;-76
2024/03/09 06:58:28;;;;;;;11.65;5.75;;;;;;;;;;10258891;28;20353;-77
2024/03/09 07:03:31;;;;;;;14.50;7.03;;;;;;;;;;10262563;28;20126;-76
2024/03/09 07:08:35;;;;;;;13.57;6.47;;;;;;;;;;10260153;28;20385;-76
2024/03/09 07:13:41;;;;;;;9.77;5.35;;;;;;;;;;10254609;28;20137;-75
2024/03/09 07:18:45;;;;;;;12.93;6.28;;;;;;;;;;10266134;28;20045;-76
2024/03/09 07:23:52;;;;;;;14.35;6.72;;;;;;;;;;10259400;28;20468;-75
2024/03/09 07:29:00;;;;;;;11.40;6.30;;;;;;;;;;10253897;28;20043;-77
2024/03/09 07:34:03;;;;;;;10.20;6.53;;;;;;;;;;10253911;28;20695;-75
2024/03/09 07:39:15;;;;;;;12.20;6.15;;;;;;;;;;10237751;28;20125;-75
2024/03/09 07:44:20;;;;;;;13.70;7.03;;;;;;;;;;10258226;28;20500;-76
2024/03/09 07:49:23;;;;;;;12.50;6.82;;;;;;;;;;10228023;28;20400;-75
2024/03/09 07:54:28;;;;;;;17.25;7.30;;;;;;;;;;10252973;28;20082;-74
2024/03/09 07:59:31;;;;;;;16.58;7.35;;;;;;;;;;10253043;28;20555;-77
2024/03/09 08:04:35;;;;;;;13.38;7.30;;;;;;;;;;10239594;28;20658;-74
2024/03/09 08:09:39;;;;;;;14.75;7.78;;;;;;;;;;10258291;28;20377;-76
2024/03/09 08:14:42;;;;;;;13.57;7.55;;;;;;;;;;10254270;28;20045;-77
2024/03/09 08:19:45;;;;;;;14.43;8.73;;;;;;;;;;10234574;28;20416;-77
2024/03/09 08:24:57;;;;;;;12.02;7.22;;;;;;;;;;10259778;28;20046;-77
2024/03/09 08:30:03;;;;;;;13.07;8.18;;;;;;;;;;10238614;28;20130;-77
2024/03/09 08:35:09;;;;;;;11.32;7.90;;;;;;;;;;10242252;28;20127;-77
2024/03/09 08:40:16;;;;;;;10.63;7.90;;;;;;;;;;10250746;28;20581;-77
2024/03/09 08:45:20;;;;;;;11.40;7.90;;;;;;;;;;10262602;28;20039;-77
2024/03/09 08:50:24;;;;;;;12.48;7.97;;;;;;;;;;10270995;28;20050;-78
2024/03/09 08:55:32;;;;;;;12.38;10.02;;;;;;;;;;10272791;28;20051;-78
2024/03/09 09:00:37;;;;;;;14.82;9.57;;;;;;;;;;10261259;28;20058;-77
2024/03/09 09:05:40;;;;;;;11.35;7.63;;;;;;;;;;10262499;28;20043;-78
2024/03/09 09:10:44;;;;;;;12.63;9.63;;;;;;;;;;10264082;28;20055;-78
2024/03/09 09:15:47;;;;;;;10.65;7.63;;;;;;;;;;10248419;28;20054;-78
2024/03/09 09:20:52;;;;;;;11.27;7.90;;;;;;;;;;10254494;28;20042;-79
2024/03/09 09:25:57;;;;;;;9.88;7.55;;;;;;;;;;10258482;28;20043;-78
2024/03/09 09:31:01;;;;;;;10.48;7.00;;;;;;;;;;10264963;28;20038;-78
2024/03/09 09:36:05;;;;;;;7.75;6.15;;;;;;;;;;10259711;28;20070;-79
2024/03/09 09:41:09;;;;;;;8.73;6.60;;;;;;;;;;10264498;28;20118;-79
2024/03/09 09:46:12;;;;;;;9.05;6.35;;;;;;;;;;10260514;28;20075;-79
2024/03/09 09:51:16;;;;;;;10.52;5.68;;;;;;;;;;10259267;28;20440;-78
2024/03/09 09:56:21;;;;;;;8.20;6.10;;;;;;;;;;10257950;28;20142;-78
2024/03/09 10:01:26;;;;;;;7.32;5.78;;;;;;;;;;10262546;28;20527;-79
2024/03/09 10:06:30;;;;;;;8.40;5.55;;;;;;;;;;10259822;28;20047;-79
2024/03/09 10:11:34;;;;;;;7.45;5.40;;;;;;;;;;10259223;28;20054;-79
2024/03/09 10:16:40;;;;;;;6.78;5.63;;;;;;;;;;10232530;28;20039;-79
2024/03/09 10:21:45;;;;;;;6.47;5.25;;;;;;;;;;10258074;28;20110;-80
2024/03/09 10:26:54;;;;;;;6.25;5.20;;;;;;;;;;10264896;28;20073;-78
2024/03/09 10:31:58;;;;;;;6.80;5.40;;;;;;;;;;10268173;28;20046;-79
2024/03/09 10:37:03;;;;;;;7.30;5.90;;;;;;;;;;10270039;28;20046;-78
2024/03/09 10:42:09;;;;;;;7.75;5.32;;;;;;;;;;10253800;28;20099;-79
2024/03/09 10:47:14;;;;;;;7.15;5.35;;;;;;;;;;10254509;28;20062;-79
2024/03/09 10:52:22;;;;;;;7.50;4.93;;;;;;;;;;10254841;28;20700;-80
2024/03/09 10:57:29;;;;;;;5.63;4.55;;;;;;;;;;10257299;28;20358;-79
2024/03/09 11:02:40;;;;;;;5.50;4.45;;;;;;;;;;10253268;28;20499;-79
2024/03/09 11:07:46;;;;;;;5.03;4.53;;;;;;;;;;10252631;28;20038;-79
2024/03/09 11:12:51;;;;;;;6.32;4.78;;;;;;;;;;10237911;28;20049;-79
2024/03/09 11:17:57;;;;;;;6.03;5.07;;;;;;;;;;10258364;28;20058;-79
2024/03/09 11:23:02;;;;;;;6.75;4.68;;;;;;;;;;10251556;28;20039;-79
2024/03/09 11:28:07;;;;;;;5.07;4.30;;;;;;;;;;10255498;28;20051;-79
2024/03/09 11:33:11;;;;;;;5.13;4.10;;;;;;;;;;10255356;28;20367;-80
2024/03/09 11:38:16;;;;;;;4.88;4.13;;;;;;;;;;10255633;28;20130;-79
2024/03/09 11:43:21;;;;;;;6.28;4.18;;;;;;;;;;10262603;28;20484;-80
2024/03/09 11:48:25;;;;;;;5.68;4.35;;;;;;;;;;10265389;28;20062;-78
2024/03/09 11:53:31;;;;;;;5.95;4.43;;;;;;;;;;10258643;28;20047;-79
2024/03/09 11:58:35;;;;;;;5.72;3.75;;;;;;;;;;10259230;28;20412;-79
2024/03/09 12:03:39;;;;;;;5.72;3.70;;;;;;;;;;10257150;28;20405;-78
2024/03/09 12:08:43;;;;;;;4.82;3.47;;;;;;;;;;10237679;28;20086;-79
2024/03/09 12:13:49;;;;;;;4.68;3.55;;;;;;;;;;10256210;28;20047;-78
2024/03/09 12:18:59;;;;;;;4.40;3.30;;;;;;;;;;10256735;28;20189;-78
2024/03/09 12:24:02;;;;;;;4.10;3.00;;;;;;;;;;10267999;28;20387;-79
2024/03/09 12:29:11;;;;;;;4.75;2.88;;;;;;;;;;10270443;28;20066;-78
2024/03/09 12:34:17;;;;;;;3.05;2.72;;;;;;;;;;10267280;28;20167;-78
2024/03/09 12:39:28;;;;;;;4.13;2.88;;;;;;;;;;10264284;28;20119;-78
2024/03/09 12:44:37;;;;;;;4.13;3.33;;;;;;;;;;10264238;28;20047;-77
2024/03/09 12:49:44;;;;;;;6.45;3.50;;;;;;;;;;10257668;28;20050;-78
2024/03/09 12:54:48;;;;;;;3.67;3.05;;;;;;;;;;10244669;28;20147;-79
2024/03/09 12:59:54;;;;;;;4.30;3.00;;;;;;;;;;10263844;28;20046;-77
2024/03/09 13:04:57;;;;;;;6.97;2.95;;;;;;;;;;10267719;28;20904;-77
2024/03/09 13:10:03;;;;;;;3.78;2.67;;;;;;;;;;10261618;28;20385;-78
2024/03/09 13:15:15;;;;;;;4.93;2.58;;;;;;;;;;10257499;28;20519;-77
2024/03/09 13:20:19;;;;;;;6.00;3.50;;;;;;;;;;10238903;28;20076;-78
2024/03/09 13:25:25;;;;;;;3.00;2.40;;;;;;;;;;10243333;28;20527;-78
2024/03/09 13:30:30;;;;;;;3.60;2.30;;;;;;;;;;10259016;28;20055;-78
2024/03/09 13:35:34;;;;;;;3.10;2.40;;;;;;;;;;10257946;28;20051;-77
2024/03/09 13:40:37;;;;;;;3.97;2.30;;;;;;;;;;10254906;28;20047;-77
2024/03/09 13:45:42;;;;;;;3.17;2.33;;;;;;;;;;10241715;28;20046;-77
2024/03/09 13:50:45;;;;;;;4.70;2.35;;;;;;;;;;10254350;28;20038;-79
2024/03/09 13:55:48;;;;;;;3.65;2.65;;;;;;;;;;10240340;28;20055;-77
2024/03/09 14:00:52;;;;;;;4.90;2.85;;;;;;;;;;10254283;28;20051;-78
2024/03/09 14:05:57;;;;;;;3.58;2.42;;;;;;;;;;10257251;28;20039;-78
2024/03/09 14:11:01;;;;;;;5.20;2.50;;;;;;;;;;10250088;28;21060;-78
2024/03/09 14:16:08;;;;;;;3.03;2.35;;;;;;;;;;10235436;28;20114;-78
2024/03/09 14:21:17;;;;;;;4.03;2.70;;;;;;;;;;10256476;28;20046;-77
2024/03/09 14:26:24;;;;;;;4.75;2.90;;;;;;;;;;10237960;28;20047;-77
2024/03/09 14:31:30;;;;;;;4.32;2.72;;;;;;;;;;10263915;28;20511;-78
2024/03/09 14:36:34;;;;;;;6.00;3.17;;;;;;;;;;10255341;28;20091;-77
2024/03/09 14:41:37;;;;;;;5.38;2.95;;;;;;;;;;10265734;28;20055;-77
2024/03/09 14:46:41;;;;;;;6.65;2.95;;;;;;;;;;10265347;28;20074;-78
2024/03/09 14:51:47;;;;;;;7.65;3.80;;;;;;;;;;10262946;28;20475;-78
2024/03/09 14:56:50;;;;;;;5.55;3.00;;;;;;;;;;10245682;28;20051;-77
2024/03/09 15:01:55;;;;;;;5.80;2.92;;;;;;;;;;10248065;28;20053;-77
2024/03/09 15:06:59;;;;;;;5.88;2.80;;;;;;;;;;10255541;28;20577;-77
2024/03/09 15:12:07;;;;;;;7.53;3.40;;;;;;;;;;10256794;28;20400;-77
2024/03/09 15:17:15;;;;;;;5.70;2.83;;;;;;;;;;10234190;28;21258;-77
2024/03/09 15:22:18;;;;;;;6.13;3.35;;;;;;;;;;10258646;28;20392;-77
2024/03/09 15:27:22;;;;;;;6.53;3.20;;;;;;;;;;10258546;28;20047;-76
2024/03/09 15:32:28;;;;;;;5.50;2.83;;;;;;;;;;10253121;28;20046;-75
2024/03/09 15:37:31;;;;;;;9.30;3.28;;;;;;;;;;10263583;28;20073;-77
2024/03/09 15:42:37;;;;;;;6.40;2.43;;;;;;;;;;10259758;28;20051;-76
2024/03/09 15:47:41;;;;;;;6.72;3.10;;;;;;;;;;10257383;28;21084;-77
2024/03/09 15:52:45;;;;;;;6.53;3.45;;;;;;;;;;10253701;28;20061;-76
2024/03/09 15:57:48;;;;;;;6.18;2.85;;;;;;;;;;10263088;28;20046;-77
2024/03/09 16:02:53;;;;;;;6.07;2.70;;;;;;;;;;10246069;28;20118;-76
2024/03/09 16:07:57;;;;;;;7.60;3.20;;;;;;;;;;10254558;28;20050;-78
2024/03/09 16:13:01;;;;;;;6.85;3.20;;;;;;;;;;10253952;28;20115;-76
2024/03/09 16:18:05;;;;;;;7.32;3.15;;;;;;;;;;10261185;28;20462;-75
2024/03/09 16:23:08;;;;;;;6.32;3.35;;;;;;;;;;10253119;28;20038;-76
2024/03/09 16:28:12;;;;;;;6.57;2.88;;;;;;;;;;10239320;28;20050;-77
2024/03/09 16:33:16;;;;;;;5.65;2.47;;;;;;;;;;10258125;28;20054;-76
2024/03/09 16:38:21;;;;;;;6.18;3.50;;;;;;;;;;10256781;28;20499;-76
2024/03/09 16:43:26;;;;;;;7.28;3.25;;;;;;;;;;10258202;28;20051;-76
2024/03/09 16:48:40;;;;;;;6.67;2.77;;;;;;;;;;10264995;28;20046;-76
2024/03/09 16:53:45;;;;;;;6.75;2.85;;;;;;;;;;10257293;28;20075;-76
2024/03/09 16:58:48;;;;;;;7.28;2.90;;;;;;;;;;10266088;28;20047;-75
2024/03/09 17:03:53;;;;;;;8.80;2.75;;;;;;;;;;10258923;28;20047;-75
2024/03/09 17:08:59;;;;;;;6.70;2.92;;;;;;;;;;10267244;28;20519;-76
2024/03/09 17:14:05;;;;;;;8.00;3.45;;;;;;;;;;10264689;28;20057;-80
2024/03/09 17:19:10;;;;;;;10.32;3.85;;;;;;;;;;10266688;28;20470;-76
2024/03/09 17:24:15;;;;;;;6.95;3.13;;;;;;;;;;10246238;28;20491;-75
2024/03/09 17:29:18;;;;;;;8.07;3.53;;;;;;;;;;10264629;28;20141;-77
2024/03/09 17:34:23;;;;;;;11.93;3.70;;;;;;;;;;10262870;28;20054;-76
2024/03/09 17:39:26;;;;;;;;;;;;;;;;;;10254299;28;20400;-76
2024/03/09 17:44:29;;;;;;;11.15;5.05;;;;;;;;;;10244102;28;20061;-77
2024/03/09 17:49:33;;;;;;;9.80;3.35;;;;;;;;;;10263288;28;20145;-76
2024/03/09 17:54:37;;;;;;;6.32;2.60;;;;;;;;;;10268219;28;20053;-75
2024/03/09 17:59:40;;;;;;;9.20;3.67;;;;;;;;;;10263165;28;20599;-76
2024/03/09 18:04:46;;;;;;;9.10;4.17;;;;;;;;;;10275118;28;20461;-78
2024/03/09 18:09:51;;;;;;;7.20;3.97;;;;;;;;;;10253160;28;20550;-77
2024/03/09 18:14:58;;;;;;;9.15;3.67;;;;;;;;;;10259189;28;20051;-77
2024/03/09 18:20:23;;;;;;;9.93;3.90;;;;;;;;;;10268344;28;20046;-78
2024/03/09 18:25:27;;;;;;;9.27;4.05;;;;;;;;;;10267616;28;20411;-79
2024/03/09 18:30:30;;;;;;;8.30;3.97;;;;;;;;;;10258251;28;20058;-78
2024/03/09 18:35:37;;;;;;;11.95;4.13;;;;;;;;;;10259872;28;20121;-78
2024/03/09 18:40:41;;;;;;;11.50;4.50;;;;;;;;;;10245083;28;20057;-77
2024/03/09 18:45:47;;;;;;;13.18;5.53;;;;;;;;;;10274171;28;20509;-77
2024/03/09 18:50:51;;;;;;;10.15;3.45;;;;;;;;;;10264935;28;20468;-77
2024/03/09 18:55:53;;;;;;;;;;;;;;;;;;10263556;28;20066;-78
2024/03/09 19:00:57;;;;;;;8.73;4.45;;;;;;;;;;10273945;28;20056;-77
2024/03/09 19:06:03;;;;;;;4.85;2.08;;;;;;;;;;10245947;28;20043;-76
2024/03/09 19:11:07;;;;;;;13.02;4.30;;;;;;;;;;10266178;28;20047;-76
2024/03/09 19:16:10;;;;;;;3.47;1.85;;;;;;;;;;10264529;28;20042;-76
2024/03/09 19:21:18;;;;;;;7.82;2.83;;;;;;;;;;10245704;28;20094;-77
2024/03/09 19:26:22;;;;;;;5.68;2.05;;;;;;;;;;10260725;28;20464;-76
2024/03/09 19:31:27;;;;;;;9.20;4.30;;;;;;;;;;10266204;28;20089;-75
2024/03/09 19:36:34;;;;;;;20.10;6.70;;;;;;;;;;10256045;28;20075;-78
2024/03/09 19:41:39;;;;;;;4.38;1.80;;;;;;;;;;10262510;28;20169;-77
2024/03/09 19:46:47;;;;;;;4.15;1.85;;;;;;;;;;10264021;28;20101;-77
2024/03/09 19:51:51;;;;;;;2.67;1.67;;;;;;;;;;10264079;28;20050;-77
2024/03/09 19:56:55;;;;;;;3.97;1.73;;;;;;;;;;10259261;28;20119;-75
2024/03/09 20:01:58;;;;;;;5.75;2.22;;;;;;;;;;10257823;28;20047;-77
2024/03/09 20:07:04;;;;;;;4.67;1.40;;;;;;;;;;10245076;28;20050;-76
2024/03/09 20:12:09;;;;;;;2.85;1.40;;;;;;;;;;10258906;28;20129;-78
2024/03/09 20:17:16;;;;;;;2.72;1.23;;;;;;;;;;10257614;28;20110;-77
2024/03/09 20:22:21;;;;;;;2.90;1.38;;;;;;;;;;10257105;28;20050;-76
2024/03/09 20:27:24;;;;;;;2.67;1.48;;;;;;;;;;10259348;28;20159;-77
2024/03/09 20:32:30;;;;;;;1.85;0.90;;;;;;;;;;10258284;28;20043;-77
2024/03/09 20:37:35;;;;;;;0.98;0.70;;;;;;;;;;10251563;28;20069;-78
2024/03/09 20:42:38;;;;;;;3.85;1.23;;;;;;;;;;10244352;28;20468;-77
2024/03/09 20:47:42;;;;;;;2.13;1.08;;;;;;;;;;10251828;28;20560;-77
2024/03/09 20:52:57;;;;;;;2.72;0.85;;;;;;;;;;10272854;28;20034;-78
2024/03/09 20:58:06;;;;;;;1.93;0.90;;;;;;;;;;10251536;28;20546;-79
2024/03/09 21:03:11;;;;;;;1.00;0.75;;;;;;;;;;10265652;28;20486;-76
2024/03/09 21:08:16;;;;;;;0.70;0.50;;;;;;;;;;10250438;28;20282;-77
2024/03/09 21:13:19;;;;;;;0.98;0.88;;;;;;;;;;10264615;28;20038;-77
2024/03/09 21:18:23;;;;;;;1.33;0.60;;;;;;;;;;10262752;28;20059;-77
2024/03/09 21:23:30;;;;;;;2.95;1.30;;;;;;;;;;10265960;28;20042;-77
2024/03/09 21:28:33;;;;;;;2.40;1.20;;;;;;;;;;10253795;28;20039;-78
2024/03/09 21:33:36;;;;;;;2.50;1.23;;;;;;;;;;10264404;28;20046;-76
2024/03/09 21:38:41;;;;;;;1.65;0.70;;;;;;;;;;10263290;28;20079;-76
2024/03/09 21:43:46;;;;;;;0.80;0.63;;;;;;;;;;10263428;28;20039;-76
2024/03/09 21:48:49;;;;;;;1.13;0.70;;;;;;;;;;10264618;28;21215;-76
2024/03/09 21:53:55;;;;;;;0.68;0.28;;;;;;;;;;10272061;28;20045;-77
2024/03/09 21:58:59;;;;;;;1.80;0.90;;;;;;;;;;10264901;28;20478;-77
2024/03/09 22:04:06;;;;;;;3.80;0.93;;;;;;;;;;10259592;28;20068;-76
2024/03/09 22:09:13;;;;;;;0.77;0.75;;;;;;;;;;10258875;28;20069;-77
2024/03/09 22:14:22;;;;;;;2.28;0.93;;;;;;;;;;10258622;28;20098;-77
2024/03/09 22:19:25;;;;;;;2.22;0.82;;;;;;;;;;10254111;28;20042;-77
2024/03/09 22:24:29;;;;;;;4.65;0.70;;;;;;;;;;10264092;28;20389;-78
2024/03/09 22:29:33;;;;;;;1.35;0.90;;;;;;;;;;10259516;28;20059;-77
2024/03/09 22:34:42;;;;;;;1.95;0.70;;;;;;;;;;10225784;28;20082;-77
2024/03/09 22:39:50;;;;;;;1.58;0.82;;;;;;;;;;10265533;28;20043;-76
2024/03/09 22:44:53;;;;;;;1.63;0.75;;;;;;;;;;10266374;28;20054;-76
2024/03/09 22:49:58;;;;;;;1.10;0.70;;;;;;;;;;10264570;28;20094;-77
2024/03/09 22:55:05;;;;;;;1.48;0.88;;;;;;;;;;10246428;28;20062;-76
2024/03/09 23:00:34;;;;;;;0.88;0.63;;;;;;;;;;10267104;28;20054;-76
2024/03/09 23:05:38;;;;;;;0.75;0.45;;;;;;;;;;10266493;28;20043;-76
2024/03/09 23:10:43;;;;;;;0.70;0.65;;;;;;;;;;10265435;28;20425;-76
2024/03/09 23:15:46;;;;;;;1.77;0.80;;;;;;;;;;10252371;28;20134;-76
2024/03/09 23:20:49;;;;;;;0.52;0.40;;;;;;;;;;10242578;28;20098;-76
2024/03/09 23:25:54;;;;;;;0.50;0.45;;;;;;;;;;10240580;28;20051;-76
2024/03/09 23:31:00;;;;;;;1.90;0.82;;;;;;;;;;10262423;28;20053;-76
2024/03/09 23:36:04;;;;;;;0.80;0.45;;;;;;;;;;10249480;28;20035;-77
2024/03/09 23:41:08;;;;;;;0.97;0.43;;;;;;;;;;10258971;28;20047;-77
2024/03/09 23:46:11;;;;;;;;;;;;;;;;;;10258337;28;20050;-77
2024/03/09 23:51:14;;;;;;;0.73;0.50;;;;;;;;;;10244290;28;19997;-75
2024/03/09 23:56:23;;;;;;;0.65;0.40;;;;;;;;;;10245842;28;20034;-78
